createdAt,value
2022-12-15T00:02:36.922Z,68.70
2022-12-15T00:05:23.086Z,68.00
2022-12-15T00:08:09.127Z,67.90
2022-12-15T00:10:54.993Z,67.90
2022-12-15T00:13:40.745Z,67.90
2022-12-15T00:16:26.967Z,67.90
2022-12-15T00:19:14.393Z,68.00
2022-12-15T00:21:59.923Z,68.10
2022-12-15T00:24:45.582Z,68.10
2022-12-15T00:27:35.215Z,68.40
2022-12-15T00:30:21.034Z,68.30
2022-12-15T00:33:06.544Z,68.50
2022-12-15T00:35:53.860Z,68.60
2022-12-15T00:38:39.631Z,68.70
2022-12-15T00:41:08.136Z,68.70
2022-12-15T00:43:37.474Z,68.90
2022-12-15T00:46:23.929Z,68.90
2022-12-15T00:48:52.463Z,69.00
2022-12-15T00:51:21.377Z,69.00
2022-12-15T00:54:07.227Z,69.10
2022-12-15T00:56:53.194Z,69.10
2022-12-15T00:59:38.828Z,69.10
2022-12-15T01:02:24.617Z,69.10
2022-12-15T01:05:10.389Z,69.10
2022-12-15T01:07:57.128Z,69.10
2022-12-15T01:10:42.773Z,69.30
2022-12-15T01:13:32.500Z,69.40
2022-12-15T01:16:18.387Z,69.40
2022-12-15T01:19:04.004Z,69.40
2022-12-15T01:21:33.592Z,69.30
2022-12-15T01:24:03.280Z,69.40
2022-12-15T01:26:31.614Z,69.30
2022-12-15T01:28:59.828Z,69.20
2022-12-15T01:31:28.098Z,69.20
2022-12-15T01:33:56.440Z,69.90
2022-12-15T01:36:24.789Z,69.30
2022-12-15T01:38:54.576Z,69.30
2022-12-15T01:41:23.681Z,69.30
2022-12-15T01:43:52.003Z,69.30
2022-12-15T01:46:22.377Z,69.40
2022-12-15T01:48:55.695Z,69.40
2022-12-15T01:51:28.128Z,69.40
2022-12-15T01:54:01.090Z,69.50
2022-12-15T01:56:37.270Z,69.50
2022-12-15T01:59:09.064Z,69.60
2022-12-15T02:01:37.413Z,69.50
2022-12-15T02:04:05.981Z,69.50
2022-12-15T02:06:34.317Z,69.50
2022-12-15T02:09:03.421Z,69.50
2022-12-15T02:11:45.546Z,69.50
2022-12-15T02:14:21.164Z,69.60
2022-12-15T02:17:03.499Z,69.60
2022-12-15T02:20:24.466Z,69.80
2022-12-15T02:23:21.559Z,69.90
2022-12-15T02:26:15.537Z,69.80
2022-12-15T02:28:53.869Z,69.80
2022-12-15T02:31:46.475Z,69.90
2022-12-15T02:34:25.856Z,69.90
2022-12-15T02:36:58.744Z,69.90
2022-12-15T02:39:27.448Z,69.90
2022-12-15T02:41:55.865Z,69.90
2022-12-15T02:44:27.654Z,70.00
2022-12-15T02:47:20.003Z,70.00
2022-12-15T02:50:05.572Z,70.20
2022-12-15T02:52:45.385Z,70.10
2022-12-15T02:55:21.442Z,70.10
2022-12-15T02:57:57.936Z,70.10
2022-12-15T03:00:26.349Z,70.30
2022-12-15T03:02:57.287Z,70.30
2022-12-15T03:05:26.952Z,70.40
2022-12-15T03:07:56.054Z,70.50
2022-12-15T03:10:26.231Z,70.50
2022-12-15T03:12:55.788Z,70.50
2022-12-15T03:15:23.988Z,70.60
2022-12-15T03:17:53.234Z,70.70
2022-12-15T03:20:23.045Z,70.70
2022-12-15T03:22:51.234Z,70.90
2022-12-15T03:25:19.504Z,70.80
2022-12-15T03:27:47.771Z,70.90
2022-12-15T03:30:16.564Z,70.90
2022-12-15T03:32:44.835Z,71.20
2022-12-15T03:35:13.558Z,71.30
2022-12-15T03:37:43.872Z,71.40
2022-12-15T03:40:14.406Z,71.60
2022-12-15T03:42:51.572Z,71.60
2022-12-15T03:45:21.776Z,71.50
2022-12-15T03:47:50.401Z,71.30
2022-12-15T03:50:20.907Z,71.20
2022-12-15T03:52:53.788Z,71.20
2022-12-15T03:55:22.921Z,71.30
2022-12-15T03:57:51.747Z,71.10
2022-12-15T04:00:21.927Z,71.00
2022-12-15T04:02:50.760Z,71.10
2022-12-15T04:05:22.198Z,71.60
2022-12-15T04:07:50.750Z,70.80
2022-12-15T04:10:20.740Z,70.60
2022-12-15T04:12:49.039Z,70.70
2022-12-15T04:15:17.421Z,70.70
2022-12-15T04:17:45.705Z,70.90
2022-12-15T04:20:14.079Z,71.10
2022-12-15T04:22:44.115Z,71.20
2022-12-15T04:25:32.962Z,71.10
2022-12-15T04:28:20.436Z,71.20
2022-12-15T04:31:10.526Z,71.20
2022-12-15T04:33:58.498Z,71.10
2022-12-15T04:36:44.705Z,71.00
2022-12-15T04:39:30.457Z,71.10
2022-12-15T04:42:17.992Z,71.00
2022-12-15T04:45:06.382Z,71.00
2022-12-15T04:47:52.405Z,70.90
2022-12-15T04:50:38.191Z,70.80
2022-12-15T04:53:28.142Z,70.80
2022-12-15T04:56:18.403Z,70.80
2022-12-15T04:59:04.534Z,70.70
2022-12-15T05:01:52.198Z,70.70
2022-12-15T05:04:38.133Z,70.60
2022-12-15T05:07:23.961Z,70.40
2022-12-15T05:10:15.200Z,70.50
2022-12-15T05:13:01.264Z,70.50
2022-12-15T05:15:47.356Z,70.60
2022-12-15T05:18:34.263Z,70.70
2022-12-15T05:21:19.823Z,70.80
2022-12-15T05:24:05.235Z,71.10
2022-12-15T05:26:53.212Z,71.10
2022-12-15T05:29:39.122Z,71.20
2022-12-15T05:32:07.766Z,71.20
2022-12-15T05:34:38.375Z,71.20
2022-12-15T05:37:07.492Z,71.30
2022-12-15T05:39:35.871Z,71.30
2022-12-15T05:42:04.152Z,71.20
2022-12-15T05:44:32.454Z,71.10
2022-12-15T05:47:00.633Z,71.00
2022-12-15T05:49:28.916Z,70.80
2022-12-15T05:51:58.605Z,70.80
2022-12-15T05:54:27.067Z,71.40
2022-12-15T05:56:55.291Z,70.70
2022-12-15T05:59:23.716Z,70.60
2022-12-15T06:01:52.107Z,70.60
2022-12-15T06:04:20.820Z,70.50
2022-12-15T06:06:49.238Z,70.60
2022-12-15T06:09:18.883Z,70.50
2022-12-15T06:11:47.139Z,70.60
2022-12-15T06:14:15.495Z,70.70
2022-12-15T06:16:50.838Z,70.80
2022-12-15T06:19:20.242Z,70.80
2022-12-15T06:21:48.781Z,71.00
2022-12-15T06:24:18.517Z,71.20
2022-12-15T06:26:49.933Z,71.30
2022-12-15T06:29:19.083Z,71.30
2022-12-15T06:31:47.903Z,71.40
2022-12-15T06:34:17.818Z,71.50
2022-12-15T06:36:46.550Z,71.50
2022-12-15T06:39:16.824Z,71.80
2022-12-15T06:41:46.646Z,71.90
2022-12-15T06:44:15.766Z,72.20
2022-12-15T06:46:45.935Z,72.10
2022-12-15T06:49:14.464Z,72.40
2022-12-15T06:51:44.152Z,72.40
2022-12-15T06:54:13.043Z,72.50
2022-12-15T06:56:42.469Z,72.70
2022-12-15T06:59:13.357Z,72.50
2022-12-15T07:01:43.150Z,72.70
2022-12-15T07:04:11.947Z,72.80
2022-12-15T07:06:40.957Z,72.90
2022-12-15T07:09:13.768Z,73.10
2022-12-15T07:11:42.017Z,73.10
2022-12-15T07:14:12.345Z,73.00
2022-12-15T07:16:41.164Z,73.10
2022-12-15T07:19:12.760Z,73.00
2022-12-15T07:21:41.178Z,73.20
2022-12-15T07:24:11.822Z,73.20
2022-12-15T07:26:40.087Z,73.20
2022-12-15T07:29:08.429Z,73.20
2022-12-15T07:31:38.044Z,73.10
2022-12-15T07:34:06.304Z,73.20
2022-12-15T07:36:34.880Z,73.00
2022-12-15T07:39:04.074Z,73.10
2022-12-15T07:41:32.662Z,73.30
2022-12-15T07:44:02.316Z,73.30
2022-12-15T07:46:30.768Z,73.50
2022-12-15T07:49:00.556Z,73.60
2022-12-15T07:51:29.155Z,73.70
2022-12-15T07:53:57.712Z,73.70
2022-12-15T07:56:26.013Z,73.80
2022-12-15T07:58:54.350Z,73.80
2022-12-15T08:01:22.825Z,73.70
2022-12-15T08:03:51.346Z,73.70
2022-12-15T08:06:21.101Z,73.50
2022-12-15T08:08:51.215Z,73.50
2022-12-15T08:11:21.567Z,73.30
2022-12-15T08:16:39.817Z,73.20
2022-12-15T08:19:11.565Z,72.90
2022-12-15T08:21:42.688Z,73.60
2022-12-15T08:24:11.645Z,72.70
2022-12-15T08:26:41.213Z,72.70
2022-12-15T08:29:48.880Z,72.60
2022-12-15T08:32:00.591Z,72.60
2022-12-15T08:34:28.983Z,72.60
2022-12-15T08:36:58.608Z,72.50
2022-12-15T08:39:27.035Z,72.40
2022-12-15T08:41:55.282Z,72.00
2022-12-15T08:44:23.713Z,71.70
2022-12-15T08:46:52.380Z,71.70
2022-12-15T08:49:22.363Z,71.80
2022-12-15T08:51:51.375Z,72.00
2022-12-15T08:54:21.690Z,72.20
2022-12-15T08:56:50.040Z,72.30
2022-12-15T08:59:19.139Z,72.30
2022-12-15T09:01:47.692Z,72.20
2022-12-15T09:04:16.611Z,72.10
2022-12-15T09:06:50.333Z,72.00
2022-12-15T09:09:21.192Z,72.00
2022-12-15T09:11:49.712Z,72.00
2022-12-15T09:14:21.568Z,71.90
2022-12-15T09:16:54.074Z,71.90
2022-12-15T09:19:22.395Z,71.80
2022-12-15T09:21:50.669Z,71.80
2022-12-15T09:24:32.193Z,71.60
2022-12-15T09:27:03.527Z,71.50
2022-12-15T09:29:32.035Z,71.30
2022-12-15T09:32:00.525Z,71.20
2022-12-15T09:34:29.273Z,71.30
2022-12-15T09:36:57.904Z,71.60
2022-12-15T09:39:27.787Z,71.70
2022-12-15T09:41:59.783Z,71.90
2022-12-15T09:44:29.555Z,71.70
2022-12-15T09:47:07.061Z,71.30
2022-12-15T09:49:47.241Z,71.20
2022-12-15T09:52:18.388Z,71.40
2022-12-15T09:54:48.627Z,71.40
2022-12-15T09:57:26.048Z,71.40
2022-12-15T10:00:16.836Z,72.40
2022-12-15T10:03:30.226Z,71.70
2022-12-15T10:06:16.565Z,71.60
2022-12-15T10:08:58.771Z,71.50
2022-12-15T10:11:44.480Z,71.20
2022-12-15T10:14:26.272Z,71.10
2022-12-15T10:17:02.456Z,70.90
2022-12-15T10:19:40.338Z,71.60
2022-12-15T10:22:14.511Z,71.00
2022-12-15T10:27:55.301Z,70.90
2022-12-15T10:30:23.696Z,71.00
2022-12-15T10:32:58.441Z,71.00
2022-12-15T10:35:30.754Z,70.80
2022-12-15T10:38:01.228Z,70.90
2022-12-15T10:40:50.516Z,71.00
2022-12-15T10:43:27.596Z,71.20
2022-12-15T10:46:05.882Z,71.20
2022-12-15T10:48:34.282Z,71.10
2022-12-15T10:51:20.335Z,71.10
2022-12-15T10:53:50.897Z,71.30
2022-12-15T10:56:32.271Z,71.20
2022-12-15T10:59:22.224Z,71.40
2022-12-15T11:01:53.783Z,71.40
2022-12-15T11:04:29.893Z,71.30
2022-12-15T11:06:59.742Z,71.50
2022-12-15T11:09:34.259Z,71.60
2022-12-15T11:12:20.407Z,71.90
2022-12-15T11:14:51.676Z,72.00
2022-12-15T11:17:21.885Z,71.90
2022-12-15T11:19:59.986Z,71.70
2022-12-15T11:22:47.879Z,71.80
2022-12-15T11:25:30.029Z,71.80
2022-12-15T11:28:01.379Z,71.80
2022-12-15T11:30:39.602Z,71.60
2022-12-15T11:33:09.946Z,71.50
2022-12-15T11:35:57.948Z,71.60
2022-12-15T11:38:33.736Z,71.70
2022-12-15T11:41:09.140Z,71.70
2022-12-15T11:44:06.645Z,72.40
2022-12-15T11:46:42.261Z,71.80
2022-12-15T11:49:42.217Z,71.70
2022-12-15T11:52:18.524Z,71.70
2022-12-15T11:54:55.683Z,71.50
2022-12-15T11:57:54.191Z,71.20
2022-12-15T12:00:26.114Z,71.10
2022-12-15T12:03:13.909Z,71.10
2022-12-15T12:06:08.629Z,71.00
2022-12-15T12:09:10.105Z,70.80
2022-12-15T12:11:44.249Z,70.60
2022-12-15T12:14:33.178Z,70.40
2022-12-15T12:17:08.282Z,70.30
2022-12-15T12:19:42.409Z,70.20
2022-12-15T12:22:17.627Z,70.30
2022-12-15T12:24:48.985Z,70.00
2022-12-15T12:27:30.048Z,69.90
2022-12-15T12:30:03.777Z,69.70
2022-12-15T12:32:40.449Z,69.70
2022-12-15T12:35:30.598Z,69.80
2022-12-15T12:41:00.753Z,69.60
2022-12-15T12:43:34.956Z,69.60
2022-12-15T12:46:10.130Z,69.80
2022-12-15T12:48:42.164Z,70.00
2022-12-15T12:51:31.138Z,70.10
2022-12-15T12:54:03.291Z,69.90
2022-12-15T12:56:43.718Z,69.60
2022-12-15T12:59:38.704Z,69.80
2022-12-15T13:02:46.642Z,70.10
2022-12-15T13:05:28.966Z,70.20
2022-12-15T13:08:27.860Z,70.40
2022-12-15T13:10:57.284Z,70.50
2022-12-15T13:13:51.337Z,70.40
2022-12-15T13:16:25.726Z,70.40
2022-12-15T13:19:05.294Z,70.30
2022-12-15T13:21:55.027Z,70.00
2022-12-15T13:24:37.505Z,69.50
2022-12-15T13:27:15.269Z,69.20
2022-12-15T13:30:14.825Z,69.20
2022-12-15T13:32:45.092Z,69.50
2022-12-15T13:35:26.646Z,69.80
2022-12-15T13:37:56.965Z,69.90
2022-12-15T13:40:34.929Z,69.80
2022-12-15T13:43:11.743Z,69.70
2022-12-15T13:45:51.156Z,69.80
2022-12-15T13:48:33.694Z,69.90
2022-12-15T13:51:20.457Z,70.20
2022-12-15T13:53:52.402Z,70.40
2022-12-15T13:56:25.747Z,70.60
2022-12-15T13:59:01.907Z,70.70
2022-12-15T14:01:33.426Z,70.60
2022-12-15T14:04:07.035Z,70.40
2022-12-15T14:06:42.585Z,70.20
2022-12-15T14:09:15.550Z,70.20
2022-12-15T14:11:54.760Z,70.40
2022-12-15T14:14:28.540Z,70.40
2022-12-15T14:16:59.975Z,70.40
2022-12-15T14:19:38.668Z,70.30
2022-12-15T14:22:28.142Z,70.20
2022-12-15T14:25:03.336Z,70.40
2022-12-15T14:27:35.021Z,70.40
2022-12-15T14:30:29.392Z,70.70
2022-12-15T14:33:00.907Z,70.90
2022-12-15T14:35:32.793Z,70.80
2022-12-15T14:38:04.896Z,70.90
2022-12-15T14:40:36.780Z,70.90
2022-12-15T14:43:07.785Z,70.90
2022-12-15T14:45:36.112Z,70.80
2022-12-15T14:51:01.181Z,70.80
2022-12-15T14:53:34.283Z,70.70
2022-12-15T14:56:13.981Z,70.70
2022-12-15T14:58:48.134Z,70.80
2022-12-15T15:01:25.880Z,70.60
2022-12-15T15:03:10.316Z,69.80
2022-12-15T15:04:02.457Z,70.70
2022-12-15T15:06:37.311Z,70.60
2022-12-15T15:09:18.432Z,70.40
2022-12-15T15:11:48.427Z,70.50
2022-12-15T15:14:21.887Z,70.40
2022-12-15T15:17:03.568Z,70.60
2022-12-15T15:19:36.158Z,70.70
2022-12-15T15:22:07.946Z,70.50
2022-12-15T15:24:39.499Z,70.50
2022-12-15T15:27:32.656Z,70.60
2022-12-15T15:30:21.258Z,70.90
2022-12-15T15:32:57.326Z,70.30
2022-12-15T15:35:27.270Z,69.70
2022-12-15T15:38:06.039Z,69.70
2022-12-15T15:40:34.303Z,69.70
2022-12-15T15:43:02.944Z,69.70
2022-12-15T15:45:32.524Z,69.80
2022-12-15T15:48:00.737Z,70.60
2022-12-15T15:50:30.890Z,69.80
2022-12-15T15:53:02.417Z,69.50
2022-12-15T15:55:39.456Z,69.60
2022-12-15T15:58:12.354Z,70.00
2022-12-15T16:00:41.918Z,70.00
2022-12-15T16:03:10.979Z,69.80
2022-12-15T16:05:39.987Z,69.60
2022-12-15T16:08:08.882Z,69.50
2022-12-15T16:10:37.090Z,69.50
2022-12-15T16:13:05.384Z,69.30
2022-12-15T16:15:33.755Z,69.40
2022-12-15T16:18:03.466Z,69.50
2022-12-15T16:20:35.355Z,69.40
2022-12-15T16:23:05.982Z,69.30
2022-12-15T16:25:46.660Z,69.40
2022-12-15T16:28:18.624Z,69.60
2022-12-15T16:30:47.089Z,69.50
2022-12-15T16:33:19.931Z,69.50
2022-12-15T16:35:49.376Z,69.60
2022-12-15T16:38:23.060Z,69.70
2022-12-15T16:40:52.152Z,69.80
2022-12-15T16:43:23.551Z,69.80
2022-12-15T16:45:53.556Z,69.90
2022-12-15T16:48:23.464Z,69.90
2022-12-15T16:50:55.237Z,70.00
2022-12-15T16:53:25.741Z,70.00
2022-12-15T16:55:56.325Z,70.00
2022-12-15T16:58:27.230Z,69.80
2022-12-15T17:00:55.478Z,69.80
2022-12-15T17:03:27.682Z,69.70
2022-12-15T17:05:59.292Z,69.60
2022-12-15T17:08:34.746Z,69.70
2022-12-15T17:11:03.481Z,70.00
2022-12-15T17:13:40.526Z,70.20
2022-12-15T17:16:14.224Z,70.30
2022-12-15T17:18:44.734Z,70.20
2022-12-15T17:21:17.544Z,70.00
2022-12-15T17:23:47.180Z,70.00
2022-12-15T17:26:28.226Z,70.10
2022-12-15T17:28:59.780Z,70.30
2022-12-15T17:31:34.732Z,70.50
2022-12-15T17:34:23.719Z,70.80
2022-12-15T17:36:51.932Z,70.90
2022-12-15T17:39:22.132Z,70.90
2022-12-15T17:42:05.940Z,70.90
2022-12-15T17:44:38.241Z,70.80
2022-12-15T17:47:08.710Z,70.70
2022-12-15T17:49:39.302Z,70.60
2022-12-15T17:52:14.372Z,70.40
2022-12-15T17:54:42.559Z,70.30
2022-12-15T17:57:12.169Z,70.20
2022-12-15T17:59:40.397Z,70.00
2022-12-15T18:02:11.578Z,69.90
2022-12-15T18:04:44.508Z,69.80
2022-12-15T18:07:18.547Z,69.80
2022-12-15T18:09:47.733Z,69.80
2022-12-15T18:12:19.944Z,69.80
2022-12-15T18:14:50.291Z,70.00
2022-12-15T18:17:18.573Z,70.00
2022-12-15T18:19:48.340Z,70.00
2022-12-15T18:22:21.083Z,70.00
2022-12-15T18:24:50.290Z,70.00
2022-12-15T18:27:23.932Z,70.00
2022-12-15T18:29:52.429Z,70.10
2022-12-15T18:32:22.493Z,70.10
2022-12-15T18:34:52.361Z,70.30
2022-12-15T18:37:23.065Z,70.40
2022-12-15T18:39:51.696Z,70.50
2022-12-15T18:42:22.096Z,70.60
2022-12-15T18:44:52.029Z,70.70
2022-12-15T18:47:22.502Z,70.70
2022-12-15T18:49:53.056Z,70.60
2022-12-15T18:52:23.363Z,71.40
2022-12-15T18:54:54.096Z,70.80
2022-12-15T18:57:29.616Z,70.80
2022-12-15T18:59:59.897Z,70.80
2022-12-15T19:02:28.300Z,70.70
2022-12-15T19:04:58.270Z,70.70
2022-12-15T19:07:26.499Z,70.80
2022-12-15T19:09:55.029Z,70.70
2022-12-15T19:12:23.294Z,70.70
2022-12-15T19:14:53.615Z,70.60
2022-12-15T19:17:42.198Z,70.50
2022-12-15T19:20:35.240Z,70.50
2022-12-15T19:23:03.921Z,70.40
2022-12-15T19:25:32.499Z,70.30
2022-12-15T19:28:02.201Z,70.30
2022-12-15T19:30:37.028Z,70.30
2022-12-15T19:33:10.382Z,70.30
2022-12-15T19:35:41.952Z,70.30
2022-12-15T19:38:18.451Z,70.20
2022-12-15T19:40:47.614Z,70.20
2022-12-15T19:43:17.600Z,70.10
2022-12-15T19:45:46.051Z,70.00
2022-12-15T19:48:17.565Z,69.90
2022-12-15T19:50:51.800Z,70.00
2022-12-15T19:53:26.981Z,69.90
2022-12-15T19:55:57.406Z,69.90
2022-12-15T19:58:29.347Z,69.90
2022-12-15T20:01:01.151Z,69.90
2022-12-15T20:03:31.057Z,69.70
2022-12-15T20:06:02.648Z,69.60
2022-12-15T20:08:35.622Z,69.40
2022-12-15T20:11:03.884Z,69.50
2022-12-15T20:13:32.673Z,69.70
2022-12-15T20:16:01.138Z,69.60
2022-12-15T20:18:30.071Z,69.70
2022-12-15T20:21:01.789Z,69.50
2022-12-15T20:23:31.978Z,69.20
2022-12-15T20:26:01.148Z,69.10
2022-12-15T20:28:31.497Z,68.90
2022-12-15T20:31:00.486Z,68.60
2022-12-15T20:33:28.984Z,68.60
2022-12-15T20:35:57.668Z,68.90
2022-12-15T20:38:30.225Z,69.10
2022-12-15T20:40:59.536Z,69.20
2022-12-15T20:43:31.266Z,69.20
2022-12-15T20:46:04.278Z,69.30
2022-12-15T20:48:34.819Z,69.30
2022-12-15T20:51:08.853Z,69.50
2022-12-15T20:53:39.878Z,69.60
2022-12-15T20:56:09.262Z,69.60
2022-12-15T20:58:40.406Z,69.40
2022-12-15T21:01:19.435Z,69.20
2022-12-15T21:03:48.580Z,69.00
2022-12-15T21:06:16.955Z,68.90
2022-12-15T21:08:47.024Z,68.90
2022-12-15T21:11:18.450Z,69.00
2022-12-15T21:13:49.058Z,69.10
2022-12-15T21:16:19.708Z,69.00
2022-12-15T21:21:38.909Z,68.90
2022-12-15T21:24:17.302Z,68.90
2022-12-15T21:26:46.169Z,69.00
2022-12-15T21:29:16.202Z,69.10
2022-12-15T21:31:44.989Z,69.30
2022-12-15T21:34:13.832Z,69.50
2022-12-15T21:36:44.637Z,69.50
2022-12-15T21:39:21.961Z,69.60
2022-12-15T21:41:50.403Z,69.80
2022-12-15T21:44:19.010Z,70.00
2022-12-15T21:46:47.459Z,70.00
2022-12-15T21:49:15.612Z,69.90
2022-12-15T21:51:47.018Z,69.80
2022-12-15T21:54:19.353Z,69.90
2022-12-15T21:56:48.731Z,69.90
2022-12-15T21:59:18.562Z,69.90
2022-12-15T22:01:47.792Z,70.00
2022-12-15T22:04:19.842Z,70.10
2022-12-15T22:06:50.796Z,70.20
2022-12-15T22:09:21.765Z,70.30
2022-12-15T22:11:54.010Z,70.30
2022-12-15T22:14:26.050Z,70.30
2022-12-15T22:16:54.836Z,70.30
2022-12-15T22:19:25.324Z,70.40
2022-12-15T22:21:53.547Z,70.20
2022-12-15T22:24:23.369Z,70.20
2022-12-15T22:26:51.806Z,70.10
2022-12-15T22:29:22.342Z,70.10
2022-12-15T22:31:51.960Z,70.00
2022-12-15T22:34:22.957Z,69.90
2022-12-15T22:36:52.135Z,69.90
2022-12-15T22:39:22.151Z,70.00
2022-12-15T22:41:51.876Z,70.00
2022-12-15T22:44:23.735Z,69.90
2022-12-15T22:46:54.154Z,69.70
2022-12-15T22:49:24.479Z,69.60
2022-12-15T22:51:52.666Z,69.60
2022-12-15T22:54:27.245Z,69.50
2022-12-15T22:56:58.643Z,69.40
2022-12-15T22:59:30.271Z,69.40
2022-12-15T23:01:58.830Z,69.50
2022-12-15T23:04:27.111Z,70.40
2022-12-15T23:06:55.332Z,69.70
2022-12-15T23:09:24.879Z,69.90
2022-12-15T23:11:52.049Z,70.10
2022-12-15T23:14:40.555Z,70.20
2022-12-15T23:17:08.221Z,70.30
2022-12-15T23:19:36.681Z,70.20
2022-12-15T23:22:04.857Z,70.20
2022-12-15T23:24:35.170Z,70.10
2022-12-15T23:27:03.398Z,69.90
2022-12-15T23:29:31.659Z,69.90
2022-12-15T23:31:59.836Z,69.80
2022-12-15T23:34:28.062Z,69.60
2022-12-15T23:36:56.289Z,69.60
2022-12-15T23:39:24.449Z,69.70
2022-12-15T23:41:54.017Z,69.90
2022-12-15T23:44:22.974Z,70.00
2022-12-15T23:46:51.219Z,70.00
2022-12-15T23:49:19.523Z,69.90
2022-12-15T23:51:48.338Z,70.00
2022-12-15T23:54:16.818Z,69.90
2022-12-15T23:56:44.997Z,69.70
2022-12-15T23:59:14.788Z,69.80
